createdAt,value
2022-12-15T00:06:00.112Z,22.20
2022-12-15T00:09:04.335Z,21.73
2022-12-15T00:12:04.568Z,23.10
2022-12-15T00:14:51.879Z,29.00
2022-12-15T00:17:55.347Z,28.37
2022-12-15T00:20:48.564Z,30.07
2022-12-15T00:23:36.108Z,29.07
2022-12-15T00:26:29.943Z,28.47
2022-12-15T00:29:19.326Z,27.57
2022-12-15T00:32:05.995Z,23.87
2022-12-15T00:34:52.224Z,23.10
2022-12-15T00:37:38.789Z,22.70
2022-12-15T00:40:07.385Z,23.47
2022-12-15T00:42:35.125Z,22.10
2022-12-15T00:45:04.278Z,22.57
2022-12-15T00:47:33.407Z,22.60
2022-12-15T00:50:19.716Z,21.97
2022-12-15T00:53:05.986Z,23.13
2022-12-15T00:55:52.418Z,22.97
2022-12-15T00:58:38.964Z,22.43
2022-12-15T01:01:26.490Z,21.33
2022-12-15T01:04:13.279Z,22.50
2022-12-15T01:06:59.791Z,22.63
2022-12-15T01:09:46.072Z,22.77
2022-12-15T01:12:32.435Z,23.93
2022-12-15T01:15:18.800Z,23.47
2022-12-15T01:18:05.282Z,22.50
2022-12-15T01:20:34.611Z,23.90
2022-12-15T01:23:02.388Z,23.40
2022-12-15T01:25:30.225Z,23.13
2022-12-15T01:27:57.877Z,23.07
2022-12-15T01:30:27.063Z,22.33
2022-12-15T01:32:54.747Z,21.50
2022-12-15T01:35:22.516Z,22.43
2022-12-15T01:37:50.528Z,23.23
2022-12-15T01:40:38.834Z,23.20
2022-12-15T01:43:15.554Z,22.30
2022-12-15T01:45:55.727Z,22.80
2022-12-15T01:48:38.525Z,23.60
2022-12-15T01:51:12.149Z,22.70
2022-12-15T01:53:54.725Z,23.33
2022-12-15T01:56:24.826Z,23.33
2022-12-15T01:58:56.518Z,23.80
2022-12-15T02:01:24.298Z,23.80
2022-12-15T02:03:52.090Z,23.10
2022-12-15T02:06:22.440Z,22.90
2022-12-15T02:08:53.094Z,23.70
2022-12-15T02:11:48.318Z,27.87
2022-12-15T02:14:34.805Z,27.20
2022-12-15T02:17:23.862Z,24.57
2022-12-15T02:19:54.633Z,30.07
2022-12-15T02:22:52.954Z,24.20
2022-12-15T02:25:56.347Z,28.20
2022-12-15T02:29:02.466Z,34.17
2022-12-15T02:31:52.354Z,29.60
2022-12-15T02:34:23.556Z,28.27
2022-12-15T02:36:57.759Z,28.83
2022-12-15T02:39:25.780Z,31.50
2022-12-15T02:41:53.697Z,29.07
2022-12-15T02:44:33.395Z,26.43
2022-12-15T02:47:01.035Z,25.53
2022-12-15T02:49:49.684Z,27.03
2022-12-15T02:52:26.544Z,25.13
2022-12-15T02:55:23.501Z,25.40
2022-12-15T02:58:12.450Z,26.63
2022-12-15T03:00:46.550Z,25.30
2022-12-15T03:03:20.331Z,24.97
2022-12-15T03:05:54.653Z,25.70
2022-12-15T03:08:22.834Z,25.77
2022-12-15T03:10:52.708Z,27.20
2022-12-15T03:13:21.475Z,26.87
2022-12-15T03:15:49.095Z,27.73
2022-12-15T03:18:16.995Z,27.40
2022-12-15T03:20:44.570Z,26.77
2022-12-15T03:23:12.459Z,27.33
2022-12-15T03:25:40.109Z,27.73
2022-12-15T03:28:07.738Z,27.07
2022-12-15T03:30:35.498Z,26.80
2022-12-15T03:33:03.350Z,26.50
2022-12-15T03:35:31.256Z,27.13
2022-12-15T03:37:58.899Z,28.10
2022-12-15T03:40:26.591Z,27.50
2022-12-15T03:42:54.254Z,29.13
2022-12-15T03:45:24.331Z,28.37
2022-12-15T03:47:52.994Z,30.27
2022-12-15T03:50:26.466Z,28.97
2022-12-15T03:53:07.950Z,27.03
2022-12-15T03:55:37.368Z,27.87
2022-12-15T03:58:08.150Z,28.20
2022-12-15T04:00:45.196Z,28.17
2022-12-15T04:03:13.154Z,27.77
2022-12-15T04:05:40.875Z,27.23
2022-12-15T04:08:08.836Z,27.73
2022-12-15T04:10:36.809Z,29.07
2022-12-15T04:13:07.097Z,27.57
2022-12-15T04:15:36.521Z,30.13
2022-12-15T04:18:06.648Z,27.70
2022-12-15T04:20:34.320Z,28.27
2022-12-15T04:23:01.994Z,28.33
2022-12-15T04:25:48.566Z,29.70
2022-12-15T04:28:35.130Z,30.93
2022-12-15T04:31:33.143Z,29.33
2022-12-15T04:34:23.283Z,29.37
2022-12-15T04:37:12.299Z,31.57
2022-12-15T04:40:06.236Z,29.70
2022-12-15T04:42:54.923Z,28.10
2022-12-15T04:45:43.951Z,28.53
2022-12-15T04:48:30.654Z,29.47
2022-12-15T04:51:17.132Z,29.47
2022-12-15T04:54:04.447Z,30.67
2022-12-15T04:56:51.025Z,29.83
2022-12-15T04:59:37.127Z,30.67
2022-12-15T05:02:23.682Z,29.23
2022-12-15T05:05:09.980Z,28.07
2022-12-15T05:07:56.172Z,28.60
2022-12-15T05:10:42.731Z,29.17
2022-12-15T05:13:29.792Z,29.97
2022-12-15T05:16:16.357Z,30.40
2022-12-15T05:19:02.923Z,29.43
2022-12-15T05:21:49.274Z,27.37
2022-12-15T05:24:35.539Z,27.77
2022-12-15T05:27:22.034Z,28.60
2022-12-15T05:30:08.220Z,27.47
2022-12-15T05:32:38.851Z,26.38
2022-12-15T05:35:06.747Z,27.30
2022-12-15T05:37:34.425Z,27.20
2022-12-15T05:40:02.022Z,28.17
2022-12-15T05:42:29.689Z,27.17
2022-12-15T05:44:57.274Z,25.67
2022-12-15T05:47:24.931Z,26.97
2022-12-15T05:49:52.533Z,26.47
2022-12-15T05:52:20.168Z,26.30
2022-12-15T05:54:47.788Z,27.23
2022-12-15T05:57:15.408Z,26.90
2022-12-15T05:59:42.993Z,28.03
2022-12-15T06:02:10.780Z,26.60
2022-12-15T06:04:38.434Z,27.77
2022-12-15T06:07:06.135Z,27.80
2022-12-15T06:09:33.740Z,27.53
2022-12-15T06:12:01.491Z,27.37
2022-12-15T06:14:29.156Z,28.03
2022-12-15T06:16:57.131Z,27.03
2022-12-15T06:19:24.883Z,29.20
2022-12-15T06:21:52.527Z,28.20
2022-12-15T06:24:20.216Z,27.87
2022-12-15T06:26:49.657Z,28.17
2022-12-15T06:29:18.524Z,28.47
2022-12-15T06:31:46.778Z,28.30
2022-12-15T06:34:16.129Z,30.20
2022-12-15T06:36:45.251Z,31.87
2022-12-15T06:39:15.242Z,34.07
2022-12-15T06:41:43.808Z,31.70
2022-12-15T06:44:16.013Z,31.53
2022-12-15T06:46:44.266Z,30.10
2022-12-15T06:49:12.187Z,30.03
2022-12-15T06:51:41.441Z,28.93
2022-12-15T06:54:11.109Z,47.53
2022-12-15T06:56:39.801Z,28.50
2022-12-15T06:59:08.411Z,27.47
2022-12-15T07:01:36.342Z,29.07
2022-12-15T07:04:05.822Z,28.37
2022-12-15T07:06:38.263Z,28.33
2022-12-15T07:09:08.471Z,29.07
2022-12-15T07:11:36.491Z,28.17
2022-12-15T07:14:04.889Z,30.63
2022-12-15T07:16:32.974Z,29.73
2022-12-15T07:19:00.789Z,28.70
2022-12-15T07:21:28.491Z,28.60
2022-12-15T07:23:57.551Z,28.93
2022-12-15T07:26:25.981Z,29.77
2022-12-15T07:28:54.495Z,29.70
2022-12-15T07:31:23.045Z,27.33
2022-12-15T07:33:52.624Z,29.77
2022-12-15T07:36:20.923Z,28.97
2022-12-15T07:38:50.737Z,30.07
2022-12-15T07:41:20.069Z,29.77
2022-12-15T07:43:48.370Z,30.63
2022-12-15T07:46:17.189Z,30.17
2022-12-15T07:48:51.167Z,30.30
2022-12-15T07:51:20.613Z,30.20
2022-12-15T07:53:50.242Z,31.33
2022-12-15T07:56:21.161Z,31.63
2022-12-15T07:58:48.902Z,30.40
2022-12-15T08:01:16.989Z,30.57
2022-12-15T08:03:45.404Z,31.83
2022-12-15T08:06:15.057Z,30.70
2022-12-15T08:08:45.096Z,30.70
2022-12-15T08:11:24.546Z,31.43
2022-12-15T08:14:15.003Z,33.27
2022-12-15T08:16:40.660Z,30.57
2022-12-15T08:19:11.879Z,29.87
2022-12-15T08:21:40.852Z,31.90
2022-12-15T08:24:10.036Z,30.30
2022-12-15T08:26:38.593Z,29.60
2022-12-15T08:31:56.454Z,30.60
2022-12-15T08:34:24.188Z,29.90
2022-12-15T08:36:52.003Z,27.67
2022-12-15T08:39:20.502Z,30.80
2022-12-15T08:41:48.134Z,30.53
2022-12-15T08:44:16.976Z,30.13
2022-12-15T08:46:44.727Z,26.63
2022-12-15T08:49:15.356Z,28.97
2022-12-15T08:51:47.362Z,26.43
2022-12-15T08:54:19.476Z,26.43
2022-12-15T08:56:47.280Z,27.77
2022-12-15T08:59:15.690Z,26.30
2022-12-15T09:01:43.523Z,23.13
2022-12-15T09:04:11.418Z,21.03
2022-12-15T09:06:39.756Z,23.70
2022-12-15T09:09:10.889Z,24.03
2022-12-15T09:11:38.631Z,24.37
2022-12-15T09:14:17.872Z,25.20
2022-12-15T09:16:50.924Z,23.67
2022-12-15T09:19:22.271Z,24.90
2022-12-15T09:21:59.911Z,24.87
2022-12-15T09:24:35.429Z,24.07
2022-12-15T09:27:03.640Z,26.27
2022-12-15T09:29:31.516Z,26.37
2022-12-15T09:31:59.377Z,25.57
2022-12-15T09:34:28.626Z,24.60
2022-12-15T09:36:56.786Z,26.00
2022-12-15T09:39:24.596Z,25.93
2022-12-15T09:41:56.090Z,26.77
2022-12-15T09:44:25.656Z,25.13
2022-12-15T09:47:18.779Z,28.00
2022-12-15T09:49:55.460Z,26.97
2022-12-15T09:52:30.506Z,28.10
2022-12-15T09:54:59.210Z,30.47
2022-12-15T09:57:50.540Z,28.97
2022-12-15T10:00:22.227Z,28.40
2022-12-15T10:03:20.620Z,27.30
2022-12-15T10:06:25.994Z,26.87
2022-12-15T10:09:22.474Z,25.70
2022-12-15T10:12:18.950Z,27.33
2022-12-15T10:14:53.433Z,29.33
2022-12-15T10:17:32.567Z,30.03
2022-12-15T10:20:26.280Z,28.57
2022-12-15T10:22:56.972Z,28.40
2022-12-15T10:25:30.778Z,28.40
2022-12-15T10:28:17.248Z,26.87
2022-12-15T10:31:18.338Z,27.17
2022-12-15T10:33:50.433Z,25.50
2022-12-15T10:36:18.229Z,25.63
2022-12-15T10:38:54.558Z,26.20
2022-12-15T10:41:26.210Z,26.40
2022-12-15T10:43:54.603Z,27.33
2022-12-15T10:46:28.284Z,26.63
2022-12-15T10:49:11.248Z,27.53
2022-12-15T10:51:51.998Z,25.50
2022-12-15T10:54:21.273Z,24.80
2022-12-15T10:56:51.416Z,25.00
2022-12-15T10:59:45.582Z,24.00
2022-12-15T11:02:24.350Z,23.87
2022-12-15T11:05:20.608Z,23.77
2022-12-15T11:08:13.236Z,22.67
2022-12-15T11:11:50.478Z,23.87
2022-12-15T11:14:27.064Z,22.33
2022-12-15T11:16:57.535Z,23.50
2022-12-15T11:19:44.362Z,20.20
2022-12-15T11:22:44.006Z,19.03
2022-12-15T11:25:35.861Z,18.03
2022-12-15T11:28:18.286Z,19.43
2022-12-15T11:31:02.014Z,21.63
2022-12-15T11:33:30.331Z,18.87
2022-12-15T11:36:18.322Z,17.83
2022-12-15T11:39:18.418Z,18.50
2022-12-15T11:41:53.906Z,19.77
2022-12-15T11:44:37.142Z,19.13
2022-12-15T11:47:12.909Z,18.53
2022-12-15T11:49:52.790Z,19.23
2022-12-15T11:53:00.670Z,19.10
2022-12-15T11:55:41.284Z,20.40
2022-12-15T11:58:24.533Z,19.00
2022-12-15T12:01:35.680Z,19.60
2022-12-15T12:07:52.517Z,22.73
2022-12-15T12:10:50.111Z,19.97
2022-12-15T12:13:40.472Z,16.63
2022-12-15T12:16:40.539Z,18.87
2022-12-15T12:19:20.481Z,19.30
2022-12-15T12:21:51.454Z,18.90
2022-12-15T12:25:03.444Z,19.97
2022-12-15T12:27:53.756Z,20.33
2022-12-15T12:30:38.488Z,19.73
2022-12-15T12:33:33.304Z,20.97
2022-12-15T12:36:16.087Z,19.60
2022-12-15T12:38:59.538Z,12.83
2022-12-15T12:41:45.088Z,12.10
2022-12-15T12:44:36.582Z,12.87
2022-12-15T12:47:21.643Z,13.73
2022-12-15T12:49:54.206Z,14.03
2022-12-15T12:52:34.637Z,13.20
2022-12-15T12:55:14.827Z,12.43
2022-12-15T12:57:44.011Z,14.33
2022-12-15T13:00:28.205Z,13.40
2022-12-15T13:03:17.381Z,13.30
2022-12-15T13:08:55.960Z,14.00
2022-12-15T13:11:55.455Z,13.37
2022-12-15T13:14:42.043Z,13.70
2022-12-15T13:17:27.496Z,14.20
2022-12-15T13:19:59.062Z,14.37
2022-12-15T13:22:40.777Z,18.83
2022-12-15T13:25:35.756Z,21.27
2022-12-15T13:28:30.622Z,20.20
2022-12-15T13:31:17.148Z,22.47
2022-12-15T13:33:51.057Z,24.63
2022-12-15T13:36:37.558Z,25.73
2022-12-15T13:39:17.623Z,26.17
2022-12-15T13:44:48.686Z,28.50
2022-12-15T13:47:23.427Z,31.03
2022-12-15T13:50:20.684Z,30.47
2022-12-15T13:56:05.927Z,36.30
2022-12-15T13:58:41.664Z,35.83
2022-12-15T14:01:32.332Z,36.50
2022-12-15T14:04:16.220Z,36.77
2022-12-15T14:06:50.748Z,39.50
2022-12-15T14:09:28.048Z,38.53
2022-12-15T14:11:57.899Z,38.83
2022-12-15T14:14:34.008Z,39.47
2022-12-15T14:17:04.058Z,39.03
2022-12-15T14:19:40.603Z,40.70
2022-12-15T14:22:30.110Z,37.47
2022-12-15T14:25:14.024Z,34.43
2022-12-15T14:27:42.026Z,31.40
2022-12-15T14:30:13.431Z,27.77
2022-12-15T14:32:44.077Z,31.50
2022-12-15T14:35:19.353Z,29.47
2022-12-15T14:37:50.235Z,33.83
2022-12-15T14:40:23.636Z,38.23
2022-12-15T14:42:55.046Z,43.10
2022-12-15T14:45:27.231Z,42.87
2022-12-15T14:48:39.512Z,39.43
2022-12-15T14:50:54.716Z,36.60
2022-12-15T14:53:31.021Z,40.20
2022-12-15T14:56:11.651Z,39.77
2022-12-15T14:58:40.723Z,38.10
2022-12-15T15:01:28.203Z,34.60
2022-12-15T15:03:05.151Z,13.80
2022-12-15T15:04:04.871Z,32.80
2022-12-15T15:06:39.077Z,33.00
2022-12-15T15:09:31.928Z,35.80
2022-12-15T15:12:06.822Z,33.30
2022-12-15T15:14:44.686Z,32.30
2022-12-15T15:17:58.821Z,36.10
2022-12-15T15:20:37.829Z,33.30
2022-12-15T15:23:10.806Z,31.10
2022-12-15T15:25:40.719Z,32.20
2022-12-15T15:28:16.359Z,31.80
2022-12-15T15:31:00.563Z,30.50
2022-12-15T15:33:28.577Z,32.33
2022-12-15T15:35:58.123Z,32.73
2022-12-15T15:38:35.715Z,33.30
2022-12-15T15:41:23.454Z,37.13
2022-12-15T15:43:51.920Z,39.70
2022-12-15T15:46:25.848Z,41.57
2022-12-15T15:49:00.813Z,40.63
2022-12-15T15:51:30.124Z,44.10
2022-12-15T15:54:11.763Z,38.70
2022-12-15T15:56:39.499Z,40.73
2022-12-15T15:59:12.653Z,40.67
2022-12-15T16:01:40.954Z,39.63
2022-12-15T16:04:09.159Z,35.57
2022-12-15T16:06:39.774Z,35.10
2022-12-15T16:09:13.723Z,32.37
2022-12-15T16:11:41.493Z,33.60
2022-12-15T16:14:16.600Z,32.60
2022-12-15T16:16:44.932Z,32.67
2022-12-15T16:19:13.161Z,31.97
2022-12-15T16:21:42.672Z,32.37
2022-12-15T16:24:16.382Z,33.03
2022-12-15T16:26:48.936Z,32.87
2022-12-15T16:29:20.636Z,32.03
2022-12-15T16:31:48.402Z,33.23
2022-12-15T16:34:16.693Z,34.90
2022-12-15T16:36:44.887Z,34.07
2022-12-15T16:39:25.370Z,33.33
2022-12-15T16:42:03.965Z,32.17
2022-12-15T16:44:36.399Z,32.77
2022-12-15T16:47:04.457Z,33.73
2022-12-15T16:54:18.134Z,35.27
2022-12-15T16:56:45.984Z,33.47
2022-12-15T17:00:12.830Z,32.90
2022-12-15T17:06:59.778Z,34.60
2022-12-15T17:09:28.871Z,37.07
2022-12-15T17:12:02.519Z,38.27
2022-12-15T17:14:30.077Z,36.87
2022-12-15T17:16:57.633Z,34.30
2022-12-15T17:19:25.230Z,35.17
2022-12-15T17:21:53.855Z,33.63
2022-12-15T17:24:22.555Z,34.40
2022-12-15T17:26:50.791Z,34.70
2022-12-15T17:29:23.160Z,34.13
2022-12-15T17:31:50.968Z,34.47
2022-12-15T17:34:33.478Z,35.03
2022-12-15T17:37:04.403Z,34.63
2022-12-15T17:39:34.534Z,37.27
2022-12-15T17:42:03.342Z,37.43
2022-12-15T17:44:36.904Z,36.57
2022-12-15T17:47:07.962Z,37.03
2022-12-15T17:49:38.689Z,34.53
2022-12-15T17:52:34.209Z,35.57
2022-12-15T17:55:03.451Z,34.60
2022-12-15T17:57:31.997Z,34.67
2022-12-15T18:00:01.805Z,33.70
2022-12-15T18:02:29.689Z,34.67
2022-12-15T18:04:57.512Z,35.73
2022-12-15T18:07:25.102Z,35.47
2022-12-15T18:09:53.285Z,34.57
2022-12-15T18:12:23.700Z,35.83
2022-12-15T18:14:51.952Z,36.63
2022-12-15T18:17:20.756Z,38.67
2022-12-15T18:19:48.867Z,37.27
2022-12-15T18:22:22.397Z,36.83
2022-12-15T18:24:52.340Z,36.37
2022-12-15T18:27:25.625Z,37.47
2022-12-15T18:29:54.089Z,37.33
2022-12-15T18:32:24.262Z,36.67
2022-12-15T18:34:52.512Z,37.87
2022-12-15T18:37:22.738Z,37.20
2022-12-15T18:39:50.746Z,37.93
2022-12-15T18:42:20.357Z,37.50
2022-12-15T18:44:52.348Z,38.53
2022-12-15T18:47:22.346Z,39.53
2022-12-15T18:49:50.447Z,38.90
2022-12-15T18:52:20.766Z,37.80
2022-12-15T18:54:50.100Z,39.90
2022-12-15T18:57:36.318Z,37.93
2022-12-15T19:00:09.850Z,38.77
2022-12-15T19:02:37.589Z,39.87
2022-12-15T19:05:06.560Z,37.43
2022-12-15T19:07:35.833Z,38.67
2022-12-15T19:10:03.863Z,38.70
2022-12-15T19:12:31.458Z,40.37
2022-12-15T19:14:59.095Z,39.40
2022-12-15T19:17:45.195Z,39.47
2022-12-15T19:20:38.703Z,39.97
2022-12-15T19:23:07.273Z,39.47
2022-12-15T19:25:35.446Z,39.80
2022-12-15T19:28:03.157Z,38.77
2022-12-15T19:30:41.625Z,39.57
2022-12-15T19:33:15.411Z,39.67
2022-12-15T19:35:46.385Z,39.30
2022-12-15T19:38:31.076Z,39.10
2022-12-15T19:41:02.765Z,38.70
2022-12-15T19:43:30.727Z,38.43
2022-12-15T19:45:58.860Z,37.93
2022-12-15T19:48:29.407Z,37.23
2022-12-15T19:50:57.269Z,36.90
2022-12-15T19:53:28.213Z,37.53
2022-12-15T19:55:58.829Z,37.80
2022-12-15T19:58:29.513Z,36.87
2022-12-15T20:01:00.519Z,37.47
2022-12-15T20:03:30.041Z,36.63
2022-12-15T20:05:59.485Z,36.40
2022-12-15T20:08:35.371Z,35.93
2022-12-15T20:11:03.576Z,36.70
2022-12-15T20:13:31.718Z,34.60
2022-12-15T20:15:59.560Z,34.80
2022-12-15T20:18:27.143Z,34.40
2022-12-15T20:20:55.599Z,34.43
2022-12-15T20:23:26.666Z,35.50
2022-12-15T20:25:55.946Z,35.07
2022-12-15T20:28:27.295Z,34.70
2022-12-15T20:30:57.124Z,32.90
2022-12-15T20:33:25.120Z,34.57
2022-12-15T20:35:52.741Z,35.30
2022-12-15T20:38:34.362Z,34.20
2022-12-15T20:41:02.647Z,33.83
2022-12-15T20:43:31.893Z,33.57
2022-12-15T20:46:14.695Z,33.80
2022-12-15T20:48:43.091Z,32.73
2022-12-15T20:51:30.966Z,33.87
2022-12-15T20:54:01.205Z,33.27
2022-12-15T20:56:29.296Z,33.00
2022-12-15T20:58:58.530Z,32.83
2022-12-15T21:01:33.259Z,32.97
2022-12-15T21:04:04.186Z,33.27
2022-12-15T21:06:31.744Z,34.77
2022-12-15T21:08:59.422Z,33.03
2022-12-15T21:11:31.961Z,32.57
2022-12-15T21:14:04.117Z,34.70
2022-12-15T21:16:32.704Z,32.13
2022-12-15T21:19:19.743Z,32.37
2022-12-15T21:21:52.975Z,31.93
2022-12-15T21:24:25.781Z,31.20
2022-12-15T21:26:53.599Z,31.77
2022-12-15T21:29:23.569Z,31.70
2022-12-15T21:31:51.921Z,30.30
2022-12-15T21:34:19.460Z,32.43
2022-12-15T21:36:51.721Z,31.93
2022-12-15T21:39:29.706Z,33.50
2022-12-15T21:42:08.281Z,31.90
2022-12-15T21:44:35.858Z,32.80
2022-12-15T21:47:23.871Z,33.00
2022-12-15T21:49:53.747Z,33.70
2022-12-15T21:52:28.731Z,33.80
2022-12-15T21:54:56.404Z,31.37
2022-12-15T21:57:23.952Z,32.30
2022-12-15T21:59:51.619Z,31.53
2022-12-15T22:02:26.807Z,32.63
2022-12-15T22:04:54.900Z,30.67
2022-12-15T22:07:22.706Z,30.90
2022-12-15T22:09:50.244Z,32.03
2022-12-15T22:12:22.026Z,30.50
2022-12-15T22:14:49.801Z,30.83
2022-12-15T22:17:21.536Z,32.70
2022-12-15T22:19:49.163Z,29.77
2022-12-15T22:22:16.974Z,30.03
2022-12-15T22:24:44.601Z,30.00
2022-12-15T22:27:20.786Z,32.10
2022-12-15T22:29:52.007Z,29.50
2022-12-15T22:32:22.208Z,30.63
2022-12-15T22:34:49.996Z,30.30
2022-12-15T22:37:19.499Z,32.00
2022-12-15T22:39:47.071Z,30.00
2022-12-15T22:42:17.361Z,30.43
2022-12-15T22:44:45.661Z,31.90
2022-12-15T22:47:13.351Z,32.33
2022-12-15T22:49:41.795Z,30.20
2022-12-15T22:52:20.788Z,29.73
2022-12-15T22:54:48.646Z,30.90
2022-12-15T22:57:29.485Z,29.73
2022-12-15T23:00:02.898Z,30.67
2022-12-15T23:02:36.804Z,31.50
2022-12-15T23:05:05.512Z,31.77
2022-12-15T23:07:34.167Z,30.87
2022-12-15T23:10:20.632Z,32.10
2022-12-15T23:12:48.589Z,31.90
2022-12-15T23:15:37.465Z,32.63
2022-12-15T23:18:05.329Z,32.50
2022-12-15T23:20:33.268Z,31.77
2022-12-15T23:23:01.375Z,32.83
2022-12-15T23:25:31.753Z,32.03
2022-12-15T23:27:59.779Z,31.07
2022-12-15T23:30:27.374Z,32.57
2022-12-15T23:32:54.987Z,33.87
2022-12-15T23:35:23.178Z,31.70
2022-12-15T23:37:50.940Z,30.83
2022-12-15T23:40:22.156Z,31.17
2022-12-15T23:42:50.981Z,30.70
2022-12-15T23:45:31.159Z,28.80
2022-12-15T23:48:10.179Z,32.20
2022-12-15T23:50:56.799Z,29.01
2022-12-15T23:53:24.401Z,31.67
2022-12-15T23:55:51.985Z,31.67
2022-12-15T23:58:19.785Z,33.23
